sensor_id;sensor_type;location;lat;lon;timestamp;pressure;altitude;pressure_sealevel;temperature;humidity
16595;BME280;8410;52.532;13.336;2022-07-29T00:01:01;101521.94;;;17.66;67.64
16595;BME280;8410;52.532;13.336;2022-07-29T00:03:29;101511.19;;;18.27;65.62
16595;BME280;8410;52.532;13.336;2022-07-29T00:05:57;101517.56;;;17.80;66.86
16595;BME280;8410;52.532;13.336;2022-07-29T00:08:26;101522.81;;;17.60;67.77
16595;BME280;8410;52.532;13.336;2022-07-29T00:10:54;101530.66;;;17.53;68.35
16595;BME280;8410;52.532;13.336;2022-07-29T00:13:24;101523.59;;;17.92;67.12
16595;BME280;8410;52.532;13.336;2022-07-29T00:15:58;101518.25;;;18.13;66.95
16595;BME280;8410;52.532;13.336;2022-07-29T00:18:30;101530.56;;;17.87;67.39
16595;BME280;8410;52.532;13.336;2022-07-29T00:20:59;101521.88;;;17.84;67.28
16595;BME280;8410;52.532;13.336;2022-07-29T00:23:27;101520.88;;;18.04;66.45
16595;BME280;8410;52.532;13.336;2022-07-29T00:25:57;101513.97;;;18.00;67.82
16595;BME280;8410;52.532;13.336;2022-07-29T00:28:26;101518.81;;;18.52;65.84
16595;BME280;8410;52.532;13.336;2022-07-29T00:30:54;101516.53;;;18.09;66.63
16595;BME280;8410;52.532;13.336;2022-07-29T00:33:22;101508.75;;;17.98;67.57
16595;BME280;8410;52.532;13.336;2022-07-29T00:35:50;101511.59;;;17.54;69.46
16595;BME280;8410;52.532;13.336;2022-07-29T00:38:19;101503.78;;;17.48;69.33
16595;BME280;8410;52.532;13.336;2022-07-29T00:40:47;101504.53;;;17.74;68.30
16595;BME280;8410;52.532;13.336;2022-07-29T00:43:17;101502.78;;;17.79;68.16
16595;BME280;8410;52.532;13.336;2022-07-29T00:45:48;101506.41;;;17.41;70.01
16595;BME280;8410;52.532;13.336;2022-07-29T00:48:16;101509.81;;;17.62;69.29
16595;BME280;8410;52.532;13.336;2022-07-29T00:50:44;101507.75;;;18.22;67.76
16595;BME280;8410;52.532;13.336;2022-07-29T00:53:12;101512.75;;;18.53;66.54
16595;BME280;8410;52.532;13.336;2022-07-29T00:55:41;101494.00;;;19.05;64.61
16595;BME280;8410;52.532;13.336;2022-07-29T00:58:11;101497.44;;;19.10;64.49
16595;BME280;8410;52.532;13.336;2022-07-29T01:00:39;101492.63;;;18.69;64.50
16595;BME280;8410;52.532;13.336;2022-07-29T01:03:11;101492.09;;;18.28;67.61
16595;BME280;8410;52.532;13.336;2022-07-29T01:05:41;101497.75;;;18.80;64.63
16595;BME280;8410;52.532;13.336;2022-07-29T01:08:18;101494.88;;;17.99;68.00
16595;BME280;8410;52.532;13.336;2022-07-29T01:10:47;101497.56;;;17.85;68.29
16595;BME280;8410;52.532;13.336;2022-07-29T01:13:16;101487.00;;;18.10;67.57
16595;BME280;8410;52.532;13.336;2022-07-29T01:15:51;101495.47;;;18.38;66.15
16595;BME280;8410;52.532;13.336;2022-07-29T01:18:32;101492.38;;;17.78;69.21
16595;BME280;8410;52.532;13.336;2022-07-29T01:21:23;101486.44;;;17.45;70.65
16595;BME280;8410;52.532;13.336;2022-07-29T01:24:25;101483.84;;;17.44;70.67
16595;BME280;8410;52.532;13.336;2022-07-29T01:27:04;101471.53;;;17.82;69.33
16595;BME280;8410;52.532;13.336;2022-07-29T01:29:49;101474.13;;;17.75;69.52
16595;BME280;8410;52.532;13.336;2022-07-29T01:32:27;101471.72;;;17.36;70.88
16595;BME280;8410;52.532;13.336;2022-07-29T01:35:08;101464.78;;;17.38;70.98
16595;BME280;8410;52.532;13.336;2022-07-29T01:37:49;101466.50;;;17.39;71.40
16595;BME280;8410;52.532;13.336;2022-07-29T01:40:22;101451.81;;;17.32;71.57
16595;BME280;8410;52.532;13.336;2022-07-29T01:42:55;101436.13;;;17.43;71.86
16595;BME280;8410;52.532;13.336;2022-07-29T01:45:33;101436.28;;;17.05;72.65
16595;BME280;8410;52.532;13.336;2022-07-29T01:48:12;101433.50;;;17.48;71.25
16595;BME280;8410;52.532;13.336;2022-07-29T01:50:48;101414.22;;;17.85;69.51
16595;BME280;8410;52.532;13.336;2022-07-29T01:53:29;101412.44;;;17.88;70.52
16595;BME280;8410;52.532;13.336;2022-07-29T01:56:04;101416.03;;;17.67;70.59
16595;BME280;8410;52.532;13.336;2022-07-29T01:58:36;101414.56;;;17.12;72.50
16595;BME280;8410;52.532;13.336;2022-07-29T02:01:09;101413.72;;;17.11;72.93
16595;BME280;8410;52.532;13.336;2022-07-29T02:03:44;101420.59;;;17.25;71.63
16595;BME280;8410;52.532;13.336;2022-07-29T02:06:19;101411.00;;;17.37;71.37
16595;BME280;8410;52.532;13.336;2022-07-29T02:08:49;101406.75;;;17.18;72.79
16595;BME280;8410;52.532;13.336;2022-07-29T02:11:18;101412.00;;;17.06;73.03
16595;BME280;8410;52.532;13.336;2022-07-29T02:13:48;101418.13;;;16.83;73.54
16595;BME280;8410;52.532;13.336;2022-07-29T02:16:22;101415.53;;;16.69;73.72
16595;BME280;8410;52.532;13.336;2022-07-29T02:18:53;101415.53;;;16.68;74.41
16595;BME280;8410;52.532;13.336;2022-07-29T02:21:25;101417.22;;;17.03;72.14
16595;BME280;8410;52.532;13.336;2022-07-29T02:23:56;101418.91;;;17.13;72.17
16595;BME280;8410;52.532;13.336;2022-07-29T02:26:29;101424.88;;;17.33;72.11
16595;BME280;8410;52.532;13.336;2022-07-29T02:28:59;101427.63;;;17.03;72.13
16595;BME280;8410;52.532;13.336;2022-07-29T02:31:34;101424.19;;;16.74;73.50
16595;BME280;8410;52.532;13.336;2022-07-29T02:34:07;101427.66;;;16.72;73.18
16595;BME280;8410;52.532;13.336;2022-07-29T02:36:37;101424.06;;;17.30;71.84
16595;BME280;8410;52.532;13.336;2022-07-29T02:39:07;101421.53;;;17.04;72.68
16595;BME280;8410;52.532;13.336;2022-07-29T02:41:42;101416.22;;;17.31;72.12
16595;BME280;8410;52.532;13.336;2022-07-29T02:44:13;101424.84;;;17.46;70.85
16595;BME280;8410;52.532;13.336;2022-07-29T02:46:50;101428.31;;;17.45;70.64
16595;BME280;8410;52.532;13.336;2022-07-29T02:49:35;101425.00;;;17.07;72.90
16595;BME280;8410;52.532;13.336;2022-07-29T02:52:11;101431.97;;;17.01;72.51
16595;BME280;8410;52.532;13.336;2022-07-29T02:54:46;101423.34;;;16.77;73.71
16595;BME280;8410;52.532;13.336;2022-07-29T02:57:22;101429.34;;;17.02;72.90
16595;BME280;8410;52.532;13.336;2022-07-29T02:59:58;101419.81;;;17.00;72.35
16595;BME280;8410;52.532;13.336;2022-07-29T03:02:32;101418.16;;;16.48;74.56
16595;BME280;8410;52.532;13.336;2022-07-29T03:05:03;101426.84;;;16.18;75.58
16595;BME280;8410;52.532;13.336;2022-07-29T03:07:33;101425.97;;;16.22;76.31
16595;BME280;8410;52.532;13.336;2022-07-29T03:10:03;101425.97;;;16.14;76.54
16595;BME280;8410;52.532;13.336;2022-07-29T03:12:40;101422.50;;;16.15;76.47
16595;BME280;8410;52.532;13.336;2022-07-29T03:15:09;101419.84;;;16.75;74.10
16595;BME280;8410;52.532;13.336;2022-07-29T03:17:39;101427.72;;;16.52;74.41
16595;BME280;8410;52.532;13.336;2022-07-29T03:20:10;101414.69;;;16.84;73.36
16595;BME280;8410;52.532;13.336;2022-07-29T03:22:41;101417.94;;;17.35;72.33
16595;BME280;8410;52.532;13.336;2022-07-29T03:25:12;101415.28;;;17.46;70.87
16595;BME280;8410;52.532;13.336;2022-07-29T03:27:40;101420.75;;;16.52;74.54
16595;BME280;8410;52.532;13.336;2022-07-29T03:30:10;101412.66;;;17.48;71.86
16595;BME280;8410;52.532;13.336;2022-07-29T03:32:50;101405.13;;;16.72;73.72
16595;BME280;8410;52.532;13.336;2022-07-29T03:35:19;101409.50;;;16.35;75.55
16595;BME280;8410;52.532;13.336;2022-07-29T03:37:47;101412.09;;;16.38;75.50
16595;BME280;8410;52.532;13.336;2022-07-29T03:40:21;101403.38;;;16.90;74.46
16595;BME280;8410;52.532;13.336;2022-07-29T03:42:53;101403.38;;;16.85;73.13
16595;BME280;8410;52.532;13.336;2022-07-29T03:45:23;101393.84;;;16.87;73.30
16595;BME280;8410;52.532;13.336;2022-07-29T03:48:00;101399.91;;;16.91;74.30
16595;BME280;8410;52.532;13.336;2022-07-29T03:50:30;101390.31;;;17.07;72.76
16595;BME280;8410;52.532;13.336;2022-07-29T03:52:58;101389.53;;;16.85;74.00
16595;BME280;8410;52.532;13.336;2022-07-29T03:55:31;101385.16;;;16.97;73.15
16595;BME280;8410;52.532;13.336;2022-07-29T03:58:01;101392.75;;;17.44;71.56
16595;BME280;8410;52.532;13.336;2022-07-29T04:00:30;101389.09;;;17.75;69.66
16595;BME280;8410;52.532;13.336;2022-07-29T04:03:03;101395.47;;;17.16;72.63
16595;BME280;8410;52.532;13.336;2022-07-29T04:05:37;101397.88;;;17.56;70.65
16595;BME280;8410;52.532;13.336;2022-07-29T04:08:05;101401.47;;;17.33;72.22
16595;BME280;8410;52.532;13.336;2022-07-29T04:10:33;101399.00;;;17.06;73.29
16595;BME280;8410;52.532;13.336;2022-07-29T04:13:01;101399.91;;;16.95;73.34
16595;BME280;8410;52.532;13.336;2022-07-29T04:15:29;101404.16;;;17.15;72.22
16595;BME280;8410;52.532;13.336;2022-07-29T04:17:58;101400.53;;;17.47;71.81
16595;BME280;8410;52.532;13.336;2022-07-29T04:20:27;101408.22;;;17.70;70.60
16595;BME280;8410;52.532;13.336;2022-07-29T04:22:55;101421.06;;;17.96;69.07
16595;BME280;8410;52.532;13.336;2022-07-29T04:25:23;101415.91;;;17.90;69.61
16595;BME280;8410;52.532;13.336;2022-07-29T04:27:51;101417.84;;;17.52;70.22
16595;BME280;8410;52.532;13.336;2022-07-29T04:30:30;101406.31;;;18.92;66.19
16595;BME280;8410;52.532;13.336;2022-07-29T04:32:58;101398.00;;;19.32;64.19
16595;BME280;8410;52.532;13.336;2022-07-29T04:35:29;101394.38;;;19.44;63.14
16595;BME280;8410;52.532;13.336;2022-07-29T04:38:05;101399.28;;;18.97;65.00
16595;BME280;8410;52.532;13.336;2022-07-29T04:40:41;101401.09;;;18.92;65.16
16595;BME280;8410;52.532;13.336;2022-07-29T04:43:09;101401.28;;;18.70;66.18
16595;BME280;8410;52.532;13.336;2022-07-29T04:45:39;101403.66;;;18.95;66.26
16595;BME280;8410;52.532;13.336;2022-07-29T04:48:08;101405.41;;;18.94;64.96
16595;BME280;8410;52.532;13.336;2022-07-29T04:50:39;101398.84;;;19.34;64.37
16595;BME280;8410;52.532;13.336;2022-07-29T04:53:07;101409.31;;;18.55;66.34
16595;BME280;8410;52.532;13.336;2022-07-29T04:55:35;101422.00;;;17.90;68.65
16595;BME280;8410;52.532;13.336;2022-07-29T04:58:04;101415.75;;;18.11;68.69
16595;BME280;8410;52.532;13.336;2022-07-29T05:00:33;101410.28;;;18.39;67.59
16595;BME280;8410;52.532;13.336;2022-07-29T05:03:01;101415.13;;;17.83;68.89
16595;BME280;8410;52.532;13.336;2022-07-29T05:05:29;101408.13;;;18.84;66.73
16595;BME280;8410;52.532;13.336;2022-07-29T05:07:58;101401.38;;;18.64;66.95
16595;BME280;8410;52.532;13.336;2022-07-29T05:10:26;101407.84;;;19.10;65.30
16595;BME280;8410;52.532;13.336;2022-07-29T05:12:55;101403.84;;;18.80;66.75
16595;BME280;8410;52.532;13.336;2022-07-29T05:15:23;101399.34;;;18.95;66.02
16595;BME280;8410;52.532;13.336;2022-07-29T05:17:51;101400.63;;;18.53;65.38
16595;BME280;8410;52.532;13.336;2022-07-29T05:20:19;101406.97;;;18.24;67.47
16595;BME280;8410;52.532;13.336;2022-07-29T05:22:52;101401.22;;;18.81;65.78
16595;BME280;8410;52.532;13.336;2022-07-29T05:25:22;101403.19;;;18.56;66.25
16595;BME280;8410;52.532;13.336;2022-07-29T05:28:10;101392.72;;;19.36;64.53
16595;BME280;8410;52.532;13.336;2022-07-29T05:30:38;101397.19;;;19.27;64.39
16595;BME280;8410;52.532;13.336;2022-07-29T05:33:06;101399.66;;;18.60;66.08
16595;BME280;8410;52.532;13.336;2022-07-29T05:35:54;101391.63;;;18.83;65.92
16595;BME280;8410;52.532;13.336;2022-07-29T05:38:26;101395.38;;;19.32;63.81
16595;BME280;8410;52.532;13.336;2022-07-29T05:40:58;101389.25;;;18.57;65.74
16595;BME280;8410;52.532;13.336;2022-07-29T05:43:26;101387.50;;;18.59;66.33
16595;BME280;8410;52.532;13.336;2022-07-29T05:45:55;101380.53;;;18.61;66.39
16595;BME280;8410;52.532;13.336;2022-07-29T05:48:24;101390.59;;;18.97;65.14
16595;BME280;8410;52.532;13.336;2022-07-29T05:50:53;101400.00;;;19.10;63.75
16595;BME280;8410;52.532;13.336;2022-07-29T05:53:21;101392.47;;;19.55;63.59
16595;BME280;8410;52.532;13.336;2022-07-29T05:55:51;101402.41;;;19.28;64.10
16595;BME280;8410;52.532;13.336;2022-07-29T05:58:21;101402.84;;;18.93;64.46
16595;BME280;8410;52.532;13.336;2022-07-29T06:00:49;101398.56;;;18.87;65.38
16595;BME280;8410;52.532;13.336;2022-07-29T06:03:17;101392.28;;;19.69;63.19
16595;BME280;8410;52.532;13.336;2022-07-29T06:05:45;101390.63;;;20.19;61.36
16595;BME280;8410;52.532;13.336;2022-07-29T06:08:13;101403.66;;;19.61;63.17
16595;BME280;8410;52.532;13.336;2022-07-29T06:10:41;101398.94;;;19.90;62.30
16595;BME280;8410;52.532;13.336;2022-07-29T06:13:09;101399.66;;;19.99;62.02
16595;BME280;8410;52.532;13.336;2022-07-29T06:15:39;101399.94;;;19.81;61.54
16595;BME280;8410;52.532;13.336;2022-07-29T06:18:07;101390.38;;;20.33;61.37
16595;BME280;8410;52.532;13.336;2022-07-29T06:20:36;101394.09;;;20.18;60.37
16595;BME280;8410;52.532;13.336;2022-07-29T06:23:05;101391.59;;;20.13;60.47
16595;BME280;8410;52.532;13.336;2022-07-29T06:25:33;101389.78;;;19.59;62.21
16595;BME280;8410;52.532;13.336;2022-07-29T06:28:03;101383.25;;;20.42;60.81
16595;BME280;8410;52.532;13.336;2022-07-29T06:30:32;101387.47;;;19.98;61.13
16595;BME280;8410;52.532;13.336;2022-07-29T06:33:02;101387.09;;;20.20;61.77
16595;BME280;8410;52.532;13.336;2022-07-29T06:35:33;101378.97;;;20.37;59.77
16595;BME280;8410;52.532;13.336;2022-07-29T06:38:08;101382.88;;;20.64;59.98
16595;BME280;8410;52.532;13.336;2022-07-29T06:40:56;101379.34;;;20.65;60.68
16595;BME280;8410;52.532;13.336;2022-07-29T06:43:30;101378.22;;;20.30;60.46
16595;BME280;8410;52.532;13.336;2022-07-29T06:46:03;101388.75;;;20.27;60.45
16595;BME280;8410;52.532;13.336;2022-07-29T06:48:33;101387.09;;;20.21;61.21
16595;BME280;8410;52.532;13.336;2022-07-29T06:51:03;101390.88;;;20.03;61.20
16595;BME280;8410;52.532;13.336;2022-07-29T06:53:32;101389.75;;;20.69;59.92
16595;BME280;8410;52.532;13.336;2022-07-29T06:56:02;101387.25;;;20.62;58.86
16595;BME280;8410;52.532;13.336;2022-07-29T06:58:31;101399.06;;;20.35;60.49
16595;BME280;8410;52.532;13.336;2022-07-29T07:01:02;101393.44;;;21.03;58.15
16595;BME280;8410;52.532;13.336;2022-07-29T07:03:33;101395.66;;;21.23;58.67
16595;BME280;8410;52.532;13.336;2022-07-29T07:06:01;101402.47;;;20.38;59.51
16595;BME280;8410;52.532;13.336;2022-07-29T07:08:30;101389.03;;;21.05;59.15
16595;BME280;8410;52.532;13.336;2022-07-29T07:10:58;101390.56;;;21.93;56.64
16595;BME280;8410;52.532;13.336;2022-07-29T07:13:26;101397.75;;;21.85;56.43
16595;BME280;8410;52.532;13.336;2022-07-29T07:15:56;101386.81;;;22.39;55.49
16595;BME280;8410;52.532;13.336;2022-07-29T07:18:24;101385.97;;;23.02;53.87
16595;BME280;8410;52.532;13.336;2022-07-29T07:20:53;101392.41;;;22.59;53.72
16595;BME280;8410;52.532;13.336;2022-07-29T07:23:21;101393.91;;;21.22;56.77
16595;BME280;8410;52.532;13.336;2022-07-29T07:25:49;101392.03;;;21.28;57.73
16595;BME280;8410;52.532;13.336;2022-07-29T07:28:18;101398.53;;;21.51;57.06
16595;BME280;8410;52.532;13.336;2022-07-29T07:30:52;101386.63;;;21.75;56.40
16595;BME280;8410;52.532;13.336;2022-07-29T07:33:20;101387.56;;;21.72;56.29
16595;BME280;8410;52.532;13.336;2022-07-29T07:35:48;101377.84;;;22.79;54.87
16595;BME280;8410;52.532;13.336;2022-07-29T07:38:17;101378.38;;;22.28;54.51
16595;BME280;8410;52.532;13.336;2022-07-29T07:40:45;101382.81;;;22.88;53.70
16595;BME280;8410;52.532;13.336;2022-07-29T07:43:14;101373.03;;;23.26;52.74
16595;BME280;8410;52.532;13.336;2022-07-29T07:45:42;101371.75;;;23.09;53.27
16595;BME280;8410;52.532;13.336;2022-07-29T07:48:10;101368.91;;;22.53;53.74
16595;BME280;8410;52.532;13.336;2022-07-29T07:50:38;101377.97;;;23.07;52.91
16595;BME280;8410;52.532;13.336;2022-07-29T07:53:06;101379.84;;;22.71;53.32
16595;BME280;8410;52.532;13.336;2022-07-29T07:55:40;101369.63;;;22.91;53.06
16595;BME280;8410;52.532;13.336;2022-07-29T07:58:28;101374.84;;;23.80;50.99
16595;BME280;8410;52.532;13.336;2022-07-29T08:00:57;101362.50;;;23.26;51.23
16595;BME280;8410;52.532;13.336;2022-07-29T08:03:25;101367.19;;;23.15;51.51
16595;BME280;8410;52.532;13.336;2022-07-29T08:05:53;101361.16;;;23.69;50.53
16595;BME280;8410;52.532;13.336;2022-07-29T08:08:21;101357.34;;;23.79;50.06
16595;BME280;8410;52.532;13.336;2022-07-29T08:10:50;101351.75;;;24.15;49.45
16595;BME280;8410;52.532;13.336;2022-07-29T08:13:24;101357.38;;;23.49;50.39
16595;BME280;8410;52.532;13.336;2022-07-29T08:15:54;101361.09;;;23.72;49.61
16595;BME280;8410;52.532;13.336;2022-07-29T08:18:29;101352.38;;;23.96;48.97
16595;BME280;8410;52.532;13.336;2022-07-29T08:20:58;101349.22;;;23.59;50.03
16595;BME280;8410;52.532;13.336;2022-07-29T08:23:26;101346.41;;;23.91;49.73
16595;BME280;8410;52.532;13.336;2022-07-29T08:26:18;101334.00;;;24.47;48.17
16595;BME280;8410;52.532;13.336;2022-07-29T08:28:46;101336.19;;;24.34;46.90
16595;BME280;8410;52.532;13.336;2022-07-29T08:31:17;101343.34;;;24.30;47.04
16595;BME280;8410;52.532;13.336;2022-07-29T08:33:45;101337.22;;;25.02;46.28
16595;BME280;8410;52.532;13.336;2022-07-29T08:36:13;101345.31;;;24.97;45.84
16595;BME280;8410;52.532;13.336;2022-07-29T08:38:41;101330.47;;;24.48;46.90
16595;BME280;8410;52.532;13.336;2022-07-29T08:41:09;101326.41;;;24.62;46.82
16595;BME280;8410;52.532;13.336;2022-07-29T08:43:39;101329.69;;;25.16;45.49
16595;BME280;8410;52.532;13.336;2022-07-29T08:46:08;101329.50;;;24.97;45.90
16595;BME280;8410;52.532;13.336;2022-07-29T08:48:37;101329.22;;;25.05;46.47
16595;BME280;8410;52.532;13.336;2022-07-29T08:51:07;101324.28;;;25.85;45.32
16595;BME280;8410;52.532;13.336;2022-07-29T08:53:36;101344.09;;;25.06;44.01
16595;BME280;8410;52.532;13.336;2022-07-29T08:56:05;101334.00;;;24.94;45.24
16595;BME280;8410;52.532;13.336;2022-07-29T08:58:34;101329.50;;;24.97;45.50
16595;BME280;8410;52.532;13.336;2022-07-29T09:01:07;101328.19;;;25.31;44.49
16595;BME280;8410;52.532;13.336;2022-07-29T09:03:40;101325.94;;;25.44;44.03
16595;BME280;8410;52.532;13.336;2022-07-29T09:06:08;101328.16;;;25.09;44.44
16595;BME280;8410;52.532;13.336;2022-07-29T09:08:37;101328.31;;;25.50;44.91
16595;BME280;8410;52.532;13.336;2022-07-29T09:11:05;101334.34;;;25.53;43.63
16595;BME280;8410;52.532;13.336;2022-07-29T09:13:34;101330.41;;;25.86;44.37
16595;BME280;8410;52.532;13.336;2022-07-29T09:16:05;101329.91;;;25.54;43.95
16595;BME280;8410;52.532;13.336;2022-07-29T09:18:37;101323.16;;;25.91;43.54
16595;BME280;8410;52.532;13.336;2022-07-29T09:21:09;101324.78;;;26.34;43.04
16595;BME280;8410;52.532;13.336;2022-07-29T09:24:06;101317.38;;;26.63;42.54
16595;BME280;8410;52.532;13.336;2022-07-29T09:26:36;101314.03;;;26.39;43.06
16595;BME280;8410;52.532;13.336;2022-07-29T09:29:12;101327.38;;;26.15;42.55
16595;BME280;8410;52.532;13.336;2022-07-29T09:31:44;101319.25;;;25.57;44.54
16595;BME280;8410;52.532;13.336;2022-07-29T09:34:16;101320.31;;;25.73;43.60
16595;BME280;8410;52.532;13.336;2022-07-29T09:36:48;101321.97;;;25.76;43.80
16595;BME280;8410;52.532;13.336;2022-07-29T09:39:28;101304.81;;;26.08;43.26
16595;BME280;8410;52.532;13.336;2022-07-29T09:41:59;101308.53;;;26.04;43.16
16595;BME280;8410;52.532;13.336;2022-07-29T09:44:42;101302.50;;;26.01;42.58
16595;BME280;8410;52.532;13.336;2022-07-29T09:47:12;101312.88;;;25.41;42.19
16595;BME280;8410;52.532;13.336;2022-07-29T09:49:53;101305.91;;;25.40;42.62
16595;BME280;8410;52.532;13.336;2022-07-29T09:52:21;101322.72;;;25.58;42.11
16595;BME280;8410;52.532;13.336;2022-07-29T09:54:49;101303.81;;;25.26;42.23
16595;BME280;8410;52.532;13.336;2022-07-29T09:57:26;101301.38;;;25.43;41.94
16595;BME280;8410;52.532;13.336;2022-07-29T10:00:00;101312.28;;;25.56;41.56
16595;BME280;8410;52.532;13.336;2022-07-29T10:02:32;101296.94;;;25.44;41.59
16595;BME280;8410;52.532;13.336;2022-07-29T10:05:05;101298.00;;;26.03;41.26
16595;BME280;8410;52.532;13.336;2022-07-29T10:07:45;101297.66;;;26.51;41.34
16595;BME280;8410;52.532;13.336;2022-07-29T10:10:22;101297.38;;;27.33;40.09
16595;BME280;8410;52.532;13.336;2022-07-29T10:12:56;101292.16;;;25.74;41.40
16595;BME280;8410;52.532;13.336;2022-07-29T10:15:34;101281.81;;;26.12;40.97
16595;BME280;8410;52.532;13.336;2022-07-29T10:18:08;101296.50;;;26.57;40.48
16595;BME280;8410;52.532;13.336;2022-07-29T10:20:37;101283.91;;;26.43;40.98
16595;BME280;8410;52.532;13.336;2022-07-29T10:23:05;101279.66;;;25.79;41.42
16595;BME280;8410;52.532;13.336;2022-07-29T10:25:33;101270.53;;;25.88;41.27
16595;BME280;8410;52.532;13.336;2022-07-29T10:28:02;101282.38;;;25.98;39.71
16595;BME280;8410;52.532;13.336;2022-07-29T10:30:31;101291.63;;;26.08;39.74
16595;BME280;8410;52.532;13.336;2022-07-29T10:33:37;101292.56;;;25.65;40.12
16595;BME280;8410;52.532;13.336;2022-07-29T10:36:40;101284.53;;;25.68;40.01
16595;BME280;8410;52.532;13.336;2022-07-29T10:39:26;101290.88;;;25.42;40.67
16595;BME280;8410;52.532;13.336;2022-07-29T10:42:17;101281.19;;;25.85;39.08
16595;BME280;8410;52.532;13.336;2022-07-29T10:45:02;101288.00;;;25.90;39.34
16595;BME280;8410;52.532;13.336;2022-07-29T10:47:31;101284.06;;;26.40;39.37
16595;BME280;8410;52.532;13.336;2022-07-29T10:50:04;101269.66;;;27.04;38.52
16595;BME280;8410;52.532;13.336;2022-07-29T10:52:53;101266.91;;;27.43;37.77
16595;BME280;8410;52.532;13.336;2022-07-29T10:55:32;101269.59;;;27.05;38.69
16595;BME280;8410;52.532;13.336;2022-07-29T10:58:15;101276.63;;;26.88;39.14
16595;BME280;8410;52.532;13.336;2022-07-29T11:00:46;101270.56;;;26.46;39.87
16595;BME280;8410;52.532;13.336;2022-07-29T11:03:43;101268.56;;;26.72;39.09
16595;BME280;8410;52.532;13.336;2022-07-29T11:07:08;101274.78;;;26.50;39.50
16595;BME280;8410;52.532;13.336;2022-07-29T11:09:37;101263.22;;;26.34;39.93
16595;BME280;8410;52.532;13.336;2022-07-29T11:12:49;101269.22;;;26.94;39.01
16595;BME280;8410;52.532;13.336;2022-07-29T11:15:20;101260.81;;;27.24;38.63
16595;BME280;8410;52.532;13.336;2022-07-29T11:18:07;101256.31;;;27.61;38.48
16595;BME280;8410;52.532;13.336;2022-07-29T11:20:43;101264.41;;;27.58;38.43
16595;BME280;8410;52.532;13.336;2022-07-29T11:23:23;101255.47;;;27.78;38.04
16595;BME280;8410;52.532;13.336;2022-07-29T11:26:15;101256.47;;;27.92;38.28
16595;BME280;8410;52.532;13.336;2022-07-29T11:29:17;101256.91;;;26.95;38.73
16595;BME280;8410;52.532;13.336;2022-07-29T11:31:51;101251.84;;;26.90;38.96
16595;BME280;8410;52.532;13.336;2022-07-29T11:34:25;101244.66;;;27.65;38.45
16595;BME280;8410;52.532;13.336;2022-07-29T11:37:19;101245.09;;;27.56;38.54
16595;BME280;8410;52.532;13.336;2022-07-29T11:40:15;101253.06;;;27.73;37.93
16595;BME280;8410;52.532;13.336;2022-07-29T11:42:45;101249.88;;;27.49;38.70
16595;BME280;8410;52.532;13.336;2022-07-29T11:45:22;101244.44;;;27.87;38.39
16595;BME280;8410;52.532;13.336;2022-07-29T11:48:18;101242.78;;;27.32;39.00
16595;BME280;8410;52.532;13.336;2022-07-29T11:50:57;101223.19;;;27.36;39.18
16595;BME280;8410;52.532;13.336;2022-07-29T11:53:26;101232.06;;;28.21;38.97
16595;BME280;8410;52.532;13.336;2022-07-29T11:55:59;101235.84;;;28.32;38.83
16595;BME280;8410;52.532;13.336;2022-07-29T11:58:30;101226.69;;;27.89;39.03
16595;BME280;8410;52.532;13.336;2022-07-29T12:01:00;101227.69;;;28.53;38.26
16595;BME280;8410;52.532;13.336;2022-07-29T12:03:30;101238.72;;;28.28;38.98
16595;BME280;8410;52.532;13.336;2022-07-29T12:06:03;101231.88;;;28.08;39.23
16595;BME280;8410;52.532;13.336;2022-07-29T12:08:41;101230.84;;;27.23;40.60
16595;BME280;8410;52.532;13.336;2022-07-29T12:11:18;101219.13;;;27.46;40.41
16595;BME280;8410;52.532;13.336;2022-07-29T12:13:48;101221.72;;;27.83;40.52
16595;BME280;8410;52.532;13.336;2022-07-29T12:16:18;101221.09;;;28.11;40.33
16595;BME280;8410;52.532;13.336;2022-07-29T12:18:57;101211.28;;;28.46;39.58
16595;BME280;8410;52.532;13.336;2022-07-29T12:21:26;101209.97;;;27.88;39.98
16595;BME280;8410;52.532;13.336;2022-07-29T12:23:57;101204.09;;;27.99;40.13
16595;BME280;8410;52.532;13.336;2022-07-29T12:26:35;101203.69;;;28.07;40.61
16595;BME280;8410;52.532;13.336;2022-07-29T12:29:06;101198.31;;;28.08;40.97
16595;BME280;8410;52.532;13.336;2022-07-29T12:31:52;101200.47;;;27.84;40.97
16595;BME280;8410;52.532;13.336;2022-07-29T12:34:26;101193.19;;;27.88;41.60
16595;BME280;8410;52.532;13.336;2022-07-29T12:36:56;101196.41;;;28.44;40.47
16595;BME280;8410;52.532;13.336;2022-07-29T12:39:25;101192.38;;;27.70;41.36
16595;BME280;8410;52.532;13.336;2022-07-29T12:41:54;101196.03;;;27.67;41.60
16595;BME280;8410;52.532;13.336;2022-07-29T12:44:44;101184.28;;;28.06;41.34
16595;BME280;8410;52.532;13.336;2022-07-29T12:47:14;101182.53;;;28.38;40.59
16595;BME280;8410;52.532;13.336;2022-07-29T12:49:43;101176.63;;;28.97;40.15
16595;BME280;8410;52.532;13.336;2022-07-29T12:52:25;101181.03;;;28.66;40.50
16595;BME280;8410;52.532;13.336;2022-07-29T12:54:53;101182.78;;;28.97;39.87
16595;BME280;8410;52.532;13.336;2022-07-29T12:57:21;101179.47;;;28.94;39.78
16595;BME280;8410;52.532;13.336;2022-07-29T13:00:06;101182.94;;;29.10;38.91
16595;BME280;8410;52.532;13.336;2022-07-29T13:02:38;101188.78;;;29.01;38.72
16595;BME280;8410;52.532;13.336;2022-07-29T13:05:09;101184.94;;;28.91;39.38
16595;BME280;8410;52.532;13.336;2022-07-29T13:07:38;101188.38;;;28.93;39.50
16595;BME280;8410;52.532;13.336;2022-07-29T13:10:23;101176.59;;;28.51;39.84
16595;BME280;8410;52.532;13.336;2022-07-29T13:13:03;101177.94;;;28.90;39.45
16595;BME280;8410;52.532;13.336;2022-07-29T13:15:32;101169.25;;;28.72;40.20
16595;BME280;8410;52.532;13.336;2022-07-29T13:18:03;101179.28;;;28.97;39.68
16595;BME280;8410;52.532;13.336;2022-07-29T13:20:32;101181.47;;;27.93;40.43